createdAt,value
2018-07-04T00:00:10.886Z,50.34
2018-07-04T00:01:10.883Z,50.73
2018-07-04T00:02:10.885Z,50.34
2018-07-04T00:03:10.894Z,50.24
2018-07-04T00:04:10.889Z,50.24
2018-07-04T00:05:10.890Z,50.73
2018-07-04T00:06:10.893Z,50.51
2018-07-04T00:07:10.891Z,50.79
2018-07-04T00:08:10.892Z,50.79
2018-07-04T00:09:10.894Z,50.60
2018-07-04T00:10:10.897Z,50.79
2018-07-04T00:11:10.899Z,51.46
2018-07-04T00:12:10.898Z,51.28
2018-07-04T00:13:10.903Z,50.99
2018-07-04T00:14:10.903Z,51.75
2018-07-04T00:15:10.901Z,51.65
2018-07-04T00:16:10.903Z,51.65
2018-07-04T00:17:10.904Z,52.33
2018-07-04T00:18:10.910Z,52.04
2018-07-04T00:19:10.906Z,52.42
2018-07-04T00:20:10.908Z,52.33
2018-07-04T00:21:10.910Z,52.23
2018-07-04T00:22:10.909Z,52.42
2018-07-04T00:23:10.914Z,52.23
2018-07-04T00:24:10.912Z,52.50
2018-07-04T00:25:10.912Z,52.97
2018-07-04T00:26:10.915Z,53.07
2018-07-04T00:27:10.919Z,53.16
2018-07-04T00:28:10.919Z,53.07
2018-07-04T00:29:10.918Z,52.97
2018-07-04T00:30:10.918Z,52.97
2018-07-04T00:31:10.919Z,53.74
2018-07-04T00:32:10.922Z,53.55
2018-07-04T00:33:10.921Z,53.26
2018-07-04T00:34:10.921Z,53.26
2018-07-04T00:35:10.942Z,53.45
2018-07-04T00:36:10.941Z,53.45
2018-07-04T00:37:10.925Z,53.07
2018-07-04T00:38:10.924Z,53.55
2018-07-04T00:39:10.926Z,53.26
2018-07-04T00:40:10.927Z,54.03
2018-07-04T00:41:10.927Z,53.64
2018-07-04T00:42:10.929Z,53.64
2018-07-04T00:43:10.928Z,53.55
2018-07-04T00:44:10.931Z,54.22
2018-07-04T00:45:10.934Z,53.93
2018-07-04T00:46:10.935Z,54.12
2018-07-04T00:47:10.931Z,54.32
2018-07-04T00:48:10.932Z,54.32
2018-07-04T00:49:10.933Z,54.22
2018-07-04T00:50:10.934Z,54.50
2018-07-04T00:51:10.936Z,54.60
2018-07-04T00:52:10.935Z,54.89
2018-07-04T00:53:10.940Z,54.79
2018-07-04T00:54:10.939Z,54.79
2018-07-04T00:55:10.937Z,54.79
2018-07-04T00:56:11.018Z,54.60
2018-07-04T00:57:10.942Z,55.18
2018-07-04T00:58:10.948Z,55.18
2018-07-04T00:59:10.941Z,54.70
2018-07-04T01:00:10.944Z,54.89
2018-07-04T01:01:10.945Z,54.79
2018-07-04T01:02:10.945Z,54.60
2018-07-04T01:03:10.944Z,54.67
2018-07-04T01:04:10.944Z,54.77
2018-07-04T01:05:10.946Z,55.53
2018-07-04T01:06:10.946Z,54.96
2018-07-04T01:07:10.945Z,54.96
2018-07-04T01:08:10.948Z,55.34
2018-07-04T01:09:10.948Z,55.53
2018-07-04T01:10:10.948Z,55.05
2018-07-04T01:11:10.948Z,55.63
2018-07-04T01:12:10.949Z,55.53
2018-07-04T01:13:10.955Z,55.73
2018-07-04T01:14:10.953Z,55.82
2018-07-04T01:15:10.951Z,55.73
2018-07-04T01:16:10.952Z,56.39
2018-07-04T01:17:10.954Z,54.96
2018-07-04T01:18:10.952Z,55.91
2018-07-04T01:19:10.951Z,56.59
2018-07-04T01:20:10.952Z,56.01
2018-07-04T01:21:10.953Z,55.73
2018-07-04T01:22:10.958Z,55.73
2018-07-04T01:23:10.962Z,55.73
2018-07-04T01:24:10.954Z,55.53
2018-07-04T01:25:10.956Z,55.53
2018-07-04T01:26:10.957Z,55.73
2018-07-04T01:27:10.956Z,55.91
2018-07-04T01:28:10.964Z,56.10
2018-07-04T01:29:10.957Z,56.10
2018-07-04T01:30:10.960Z,56.17
2018-07-04T01:31:10.957Z,56.17
2018-07-04T01:32:10.957Z,56.20
2018-07-04T01:33:10.958Z,56.01
2018-07-04T01:34:10.960Z,56.59
2018-07-04T01:35:10.974Z,56.49
2018-07-04T01:36:10.962Z,56.87
2018-07-04T01:37:10.961Z,56.68
2018-07-04T01:38:10.961Z,56.59
2018-07-04T01:39:10.960Z,55.82
2018-07-04T01:40:10.961Z,56.20
2018-07-04T01:41:10.960Z,56.59
2018-07-04T01:42:10.963Z,56.77
2018-07-04T01:43:10.960Z,56.59
2018-07-04T01:44:10.962Z,56.77
2018-07-04T01:45:10.962Z,56.49
2018-07-04T01:46:10.963Z,56.30
2018-07-04T01:47:10.962Z,56.59
2018-07-04T01:48:10.966Z,56.30
2018-07-04T01:49:10.964Z,56.68
2018-07-04T01:50:10.965Z,56.30
2018-07-04T01:51:10.965Z,56.68
2018-07-04T01:52:10.989Z,56.39
2018-07-04T01:53:10.967Z,56.49
2018-07-04T01:54:10.965Z,56.30
2018-07-04T01:55:10.965Z,56.87
2018-07-04T01:56:10.967Z,56.59
2018-07-04T01:57:10.968Z,56.30
2018-07-04T01:58:10.973Z,57.06
2018-07-04T01:59:10.966Z,56.94
2018-07-04T02:00:10.967Z,56.97
2018-07-04T02:01:10.975Z,56.87
2018-07-04T02:02:10.968Z,56.77
2018-07-04T02:03:10.970Z,56.97
2018-07-04T02:04:10.971Z,57.04
2018-07-04T02:05:10.975Z,56.84
2018-07-04T02:06:10.986Z,57.51
2018-07-04T02:07:10.969Z,57.32
2018-07-04T02:08:10.980Z,57.61
2018-07-04T02:09:10.977Z,58.28
2018-07-04T02:10:10.969Z,58.47
2018-07-04T02:11:10.974Z,58.18
2018-07-04T02:12:10.968Z,58.18
2018-07-04T02:13:10.973Z,58.18
2018-07-04T02:14:10.969Z,58.47
2018-07-04T02:15:10.983Z,57.99
2018-07-04T02:16:10.970Z,57.99
2018-07-04T02:17:10.971Z,58.28
2018-07-04T02:18:10.969Z,58.18
2018-07-04T02:19:11.081Z,58.09
2018-07-04T02:20:10.970Z,58.37
2018-07-04T02:21:10.969Z,58.47
2018-07-04T02:22:10.970Z,58.28
2018-07-04T02:23:10.968Z,57.99
2018-07-04T02:24:10.968Z,58.47
2018-07-04T02:25:10.969Z,58.47
2018-07-04T02:26:10.969Z,58.56
2018-07-04T02:27:10.969Z,58.47
2018-07-04T02:28:10.978Z,58.66
2018-07-04T02:29:10.982Z,58.92
2018-07-04T02:30:10.970Z,58.73
2018-07-04T02:31:10.977Z,58.76
2018-07-04T02:32:10.987Z,58.54
2018-07-04T02:33:10.968Z,59.01
2018-07-04T02:34:10.976Z,59.49
2018-07-04T02:35:10.968Z,59.30
2018-07-04T02:36:10.969Z,59.30
2018-07-04T02:37:10.970Z,58.92
2018-07-04T02:38:10.980Z,59.20
2018-07-04T02:39:10.969Z,59.30
2018-07-04T02:40:10.968Z,59.40
2018-07-04T02:41:10.968Z,59.20
2018-07-04T02:42:10.984Z,59.69
2018-07-04T02:43:10.967Z,59.49
2018-07-04T02:44:10.969Z,59.88
2018-07-04T02:45:10.968Z,59.88
2018-07-04T02:46:10.977Z,59.49
2018-07-04T02:47:10.969Z,59.49
2018-07-04T02:48:10.969Z,59.69
2018-07-04T02:49:10.969Z,59.59
2018-07-04T02:50:10.967Z,59.11
2018-07-04T02:51:10.966Z,59.88
2018-07-04T02:52:10.969Z,60.45
2018-07-04T02:53:10.966Z,60.45
2018-07-04T02:54:10.966Z,60.16
2018-07-04T02:55:10.965Z,60.16
2018-07-04T02:56:10.971Z,60.06
2018-07-04T02:57:10.966Z,60.26
2018-07-04T02:58:10.969Z,60.64
2018-07-04T02:59:10.980Z,60.35
2018-07-04T03:00:10.964Z,60.26
2018-07-04T03:01:10.963Z,60.64
2018-07-04T03:02:10.964Z,60.83
2018-07-04T03:03:10.964Z,60.93
2018-07-04T03:04:10.963Z,60.64
2018-07-04T03:05:10.963Z,61.31
2018-07-04T03:06:10.964Z,60.64
2018-07-04T03:07:10.963Z,61.69
2018-07-04T03:08:10.962Z,60.74
2018-07-04T03:09:10.961Z,60.64
2018-07-04T03:10:10.960Z,60.93
2018-07-04T03:11:10.960Z,60.83
2018-07-04T03:12:10.960Z,61.69
2018-07-04T03:13:10.960Z,61.57
2018-07-04T03:14:10.960Z,60.80
2018-07-04T03:15:10.958Z,61.66
2018-07-04T03:16:10.957Z,61.09
2018-07-04T03:17:10.958Z,60.90
2018-07-04T03:18:38.525Z,61.47
2018-07-04T03:19:10.957Z,61.09
2018-07-04T03:20:10.961Z,61.38
2018-07-04T03:21:10.956Z,61.47
2018-07-04T03:22:10.956Z,61.85
2018-07-04T03:23:10.953Z,61.85
2018-07-04T03:24:10.957Z,62.33
2018-07-04T03:25:10.952Z,61.85
2018-07-04T03:26:10.952Z,62.14
2018-07-04T03:27:10.951Z,62.04
2018-07-04T03:28:10.957Z,62.24
2018-07-04T03:29:10.948Z,61.85
2018-07-04T03:30:10.957Z,62.14
2018-07-04T03:31:10.948Z,62.14
2018-07-04T03:32:10.949Z,61.76
2018-07-04T03:33:10.947Z,62.14
2018-07-04T03:34:10.947Z,62.24
2018-07-04T03:35:10.947Z,62.24
2018-07-04T03:36:10.944Z,62.24
2018-07-04T03:37:10.948Z,62.24
2018-07-04T03:38:10.943Z,62.14
2018-07-04T03:39:10.944Z,61.28
2018-07-04T03:40:10.942Z,61.28
2018-07-04T03:41:10.943Z,61.19
2018-07-04T03:42:10.941Z,61.47
2018-07-04T03:43:10.939Z,61.57
2018-07-04T03:44:10.939Z,60.99
2018-07-04T03:45:10.938Z,61.28
2018-07-04T03:46:10.940Z,62.24
2018-07-04T03:47:10.935Z,62.24
2018-07-04T03:48:10.937Z,62.24
2018-07-04T03:49:10.938Z,62.14
2018-07-04T03:50:10.934Z,62.04
2018-07-04T03:51:10.934Z,62.04
2018-07-04T03:52:10.936Z,61.85
2018-07-04T03:53:10.935Z,61.28
2018-07-04T03:54:10.933Z,61.28
2018-07-04T03:55:10.932Z,60.99
2018-07-04T03:56:10.932Z,61.38
2018-07-04T03:57:10.932Z,61.38
2018-07-04T03:58:10.945Z,61.28
2018-07-04T03:59:10.930Z,60.90
2018-07-04T04:00:10.929Z,61.28
2018-07-04T04:01:10.935Z,61.09
2018-07-04T04:02:10.928Z,61.47
2018-07-04T04:03:10.927Z,61.47
2018-07-04T04:04:10.932Z,60.61
2018-07-04T04:05:10.926Z,60.64
2018-07-04T04:06:10.927Z,61.12
2018-07-04T04:07:10.926Z,60.64
2018-07-04T04:08:10.937Z,60.64
2018-07-04T04:09:10.927Z,60.83
2018-07-04T04:10:10.926Z,61.60
2018-07-04T04:11:10.924Z,61.69
2018-07-04T04:12:10.924Z,61.02
2018-07-04T04:13:10.923Z,60.55
2018-07-04T04:14:10.923Z,60.64
2018-07-04T04:15:10.923Z,61.12
2018-07-04T04:16:10.923Z,60.93
2018-07-04T04:17:10.923Z,60.45
2018-07-04T04:18:10.922Z,60.45
2018-07-04T04:19:10.921Z,60.64
2018-07-04T04:20:10.921Z,60.55
2018-07-04T04:21:10.936Z,60.55
2018-07-04T04:22:10.920Z,60.55
2018-07-04T04:23:10.922Z,60.74
2018-07-04T04:24:10.920Z,61.02
2018-07-04T04:25:10.919Z,61.02
2018-07-04T04:26:10.918Z,60.83
2018-07-04T04:27:10.948Z,61.22
2018-07-04T04:28:10.918Z,60.55
2018-07-04T04:29:10.918Z,60.64
2018-07-04T04:30:10.922Z,60.35
2018-07-04T04:31:10.920Z,60.67
2018-07-04T04:32:10.921Z,60.48
2018-07-04T04:33:10.917Z,59.43
2018-07-04T04:34:10.917Z,59.62
2018-07-04T04:35:10.917Z,59.33
2018-07-04T04:36:10.935Z,58.56
2018-07-04T04:37:10.915Z,58.76
2018-07-04T04:38:10.917Z,58.31
2018-07-04T04:39:10.914Z,58.02
2018-07-04T04:40:10.918Z,58.40
2018-07-04T04:41:10.920Z,57.92
2018-07-04T04:42:10.915Z,57.35
2018-07-04T04:43:10.913Z,57.73
2018-07-04T04:44:10.917Z,56.87
2018-07-04T04:45:10.913Z,56.68
2018-07-04T04:46:10.914Z,56.30
2018-07-04T04:47:10.915Z,56.59
2018-07-04T04:48:10.912Z,56.77
2018-07-04T04:49:10.914Z,56.81
2018-07-04T04:50:10.916Z,56.13
2018-07-04T04:51:10.913Z,56.04
2018-07-04T04:52:10.913Z,56.04
2018-07-04T04:53:10.915Z,55.75
2018-07-04T04:54:10.915Z,56.71
2018-07-04T04:55:10.915Z,55.85
2018-07-04T04:56:10.915Z,56.13
2018-07-04T04:57:10.915Z,55.94
2018-07-04T04:58:10.916Z,55.85
2018-07-04T04:59:10.914Z,55.85
2018-07-04T05:00:10.915Z,56.32
2018-07-04T05:01:10.914Z,55.27
2018-07-04T05:02:10.920Z,55.56
2018-07-04T05:03:10.916Z,55.08
2018-07-04T05:04:10.919Z,55.40
2018-07-04T05:05:10.917Z,54.63
2018-07-04T05:06:10.918Z,55.21
2018-07-04T05:07:10.918Z,54.63
2018-07-04T05:08:10.920Z,54.15
2018-07-04T05:09:10.922Z,53.77
2018-07-04T05:10:10.920Z,53.99
2018-07-04T05:11:10.919Z,53.89
2018-07-04T05:12:10.921Z,53.44
2018-07-04T05:13:10.922Z,52.57
2018-07-04T05:14:10.925Z,51.83
2018-07-04T05:15:10.923Z,50.42
2018-07-04T05:16:10.931Z,49.65
2018-07-04T05:17:10.927Z,49.77
2018-07-04T05:18:10.927Z,48.54
2018-07-04T05:19:10.932Z,47.00
2018-07-04T05:20:10.931Z,46.93
2018-07-04T05:21:10.933Z,45.97
2018-07-04T05:22:10.937Z,45.99
2018-07-04T05:23:10.940Z,45.22
2018-07-04T05:24:10.938Z,44.45
2018-07-04T05:25:10.944Z,45.22
2018-07-04T05:26:10.947Z,45.03
2018-07-04T05:27:10.945Z,44.93
2018-07-04T05:28:10.973Z,43.80
2018-07-04T05:29:10.949Z,42.57
2018-07-04T05:30:10.955Z,42.19
2018-07-04T05:31:10.955Z,41.51
2018-07-04T05:32:10.960Z,41.51
2018-07-04T05:33:10.967Z,42.47
2018-07-04T05:34:10.973Z,42.36
2018-07-04T05:35:11.015Z,42.28
2018-07-04T05:36:10.979Z,41.53
2018-07-04T05:37:10.980Z,41.63
2018-07-04T05:38:10.976Z,41.32
2018-07-04T05:39:10.978Z,41.53
2018-07-04T05:40:10.984Z,41.44
2018-07-04T05:41:10.991Z,41.24
2018-07-04T05:42:10.991Z,41.99
2018-07-04T05:43:10.996Z,42.38
2018-07-04T05:44:10.997Z,42.74
2018-07-04T05:45:11.004Z,44.09
2018-07-04T05:46:11.011Z,43.78
2018-07-04T05:47:11.023Z,44.35
2018-07-04T05:48:11.013Z,45.22
2018-07-04T05:49:11.016Z,45.49
2018-07-04T05:50:11.019Z,45.59
2018-07-04T05:51:11.038Z,45.87
2018-07-04T05:52:11.031Z,46.26
2018-07-04T05:53:11.088Z,46.72
2018-07-04T05:54:11.034Z,47.20
2018-07-04T05:55:11.036Z,46.55
2018-07-04T05:56:11.071Z,46.09
2018-07-04T05:57:11.043Z,45.42
2018-07-04T05:58:11.051Z,44.65
2018-07-04T05:59:11.071Z,44.48
2018-07-04T06:00:11.053Z,44.17
2018-07-04T06:01:11.056Z,44.55
2018-07-04T06:02:11.059Z,45.32
2018-07-04T06:03:11.088Z,45.32
2018-07-04T06:04:11.074Z,44.57
2018-07-04T06:05:11.069Z,43.44
2018-07-04T06:06:11.081Z,42.38
2018-07-04T06:07:11.253Z,42.57
2018-07-04T06:08:11.085Z,43.32
2018-07-04T06:09:11.091Z,44.09
2018-07-04T06:10:11.086Z,43.71
2018-07-04T06:11:11.088Z,43.80
2018-07-04T06:12:11.091Z,43.61
2018-07-04T06:13:11.100Z,43.90
2018-07-04T06:14:11.099Z,44.09
2018-07-04T06:15:11.110Z,43.80
2018-07-04T06:16:11.105Z,43.73
2018-07-04T06:17:11.109Z,42.86
2018-07-04T06:18:11.111Z,42.09
2018-07-04T06:19:11.118Z,41.63
2018-07-04T06:20:11.122Z,41.72
2018-07-04T06:21:11.144Z,41.34
2018-07-04T06:22:11.130Z,41.44
2018-07-04T06:23:11.133Z,41.82
2018-07-04T06:24:11.133Z,41.32
2018-07-04T06:25:11.138Z,41.80
2018-07-04T06:26:11.141Z,41.99
2018-07-04T06:27:11.143Z,41.71
2018-07-04T06:28:11.148Z,41.41
2018-07-04T06:29:11.153Z,41.80
2018-07-04T06:30:11.156Z,42.28
2018-07-04T06:31:11.166Z,42.47
2018-07-04T06:32:11.164Z,42.19
2018-07-04T06:33:11.170Z,42.28
2018-07-04T06:34:11.171Z,42.28
2018-07-04T06:35:11.173Z,42.19
2018-07-04T06:36:11.180Z,42.38
2018-07-04T06:37:11.182Z,41.99
2018-07-04T06:38:11.185Z,42.57
2018-07-04T06:39:11.226Z,42.57
2018-07-04T06:40:11.452Z,42.21
2018-07-04T06:41:11.364Z,42.40
2018-07-04T06:42:11.338Z,41.72
2018-07-04T06:43:11.203Z,41.34
2018-07-04T06:44:11.316Z,41.53
2018-07-04T06:45:11.212Z,42.59
2018-07-04T06:46:11.215Z,42.11
2018-07-04T06:47:11.217Z,41.63
2018-07-04T06:48:11.458Z,41.44
2018-07-04T06:49:11.262Z,41.44
2018-07-04T06:50:11.230Z,41.14
2018-07-04T06:51:11.233Z,41.34
2018-07-04T06:52:11.236Z,41.34
2018-07-04T06:53:11.242Z,40.95
2018-07-04T06:54:11.290Z,40.95
2018-07-04T06:55:11.247Z,40.86
2018-07-04T06:56:11.251Z,40.95
2018-07-04T06:57:11.256Z,41.24
2018-07-04T06:58:11.263Z,41.05
2018-07-04T06:59:11.265Z,40.95
2018-07-04T07:00:11.268Z,40.76
2018-07-04T07:01:11.283Z,40.59
2018-07-04T07:02:11.275Z,40.66
2018-07-04T07:03:11.280Z,40.59
2018-07-04T07:04:11.281Z,40.69
2018-07-04T07:05:11.293Z,40.78
2018-07-04T07:06:11.291Z,40.69
2018-07-04T07:07:11.295Z,40.39
2018-07-04T07:08:11.338Z,40.20
2018-07-04T07:09:11.363Z,39.82
2018-07-04T07:10:11.306Z,39.82
2018-07-04T07:11:11.308Z,39.53
2018-07-04T07:12:11.313Z,39.91
2018-07-04T07:13:11.319Z,40.59
2018-07-04T07:14:11.333Z,40.78
2018-07-04T07:15:11.324Z,41.07
2018-07-04T07:16:11.402Z,40.78
2018-07-04T07:17:11.378Z,40.69
2018-07-04T07:18:11.369Z,41.07
2018-07-04T07:19:11.359Z,40.88
2018-07-04T07:20:11.344Z,40.69
2018-07-04T07:21:11.360Z,41.07
2018-07-04T07:22:11.352Z,40.97
2018-07-04T07:23:11.355Z,40.69
2018-07-04T07:24:11.357Z,40.30
2018-07-04T07:25:11.424Z,40.49
2018-07-04T07:26:11.367Z,40.59
2018-07-04T07:27:11.370Z,40.88
2018-07-04T07:28:11.374Z,40.97
2018-07-04T07:29:11.377Z,40.97
2018-07-04T07:30:11.382Z,40.20
2018-07-04T07:31:11.387Z,40.11
2018-07-04T07:32:11.389Z,40.32
2018-07-04T07:33:11.393Z,40.01
2018-07-04T07:34:11.474Z,40.59
2018-07-04T07:35:11.408Z,40.22
2018-07-04T07:36:11.403Z,40.22
2018-07-04T07:37:11.408Z,40.32
2018-07-04T07:38:11.633Z,40.12
2018-07-04T07:39:11.413Z,40.22
2018-07-04T07:40:11.707Z,40.03
2018-07-04T07:41:11.485Z,39.94
2018-07-04T07:42:11.519Z,39.94
2018-07-04T07:43:11.658Z,40.12
2018-07-04T07:44:11.568Z,39.74
2018-07-04T07:45:11.459Z,40.03
2018-07-04T07:46:11.442Z,40.42
2018-07-04T07:47:11.639Z,40.32
2018-07-04T07:48:12.080Z,39.95
2018-07-04T07:49:12.387Z,39.95
2018-07-04T07:50:11.536Z,39.57
2018-07-04T07:51:11.679Z,39.37
2018-07-04T07:52:12.585Z,39.86
2018-07-04T07:53:12.599Z,39.57
2018-07-04T07:54:11.574Z,39.09
2018-07-04T07:55:11.651Z,39.18
2018-07-04T07:56:12.570Z,39.57
2018-07-04T07:57:11.627Z,39.29
2018-07-04T07:58:11.507Z,39.49
2018-07-04T07:59:12.573Z,39.87
2018-07-04T08:00:11.759Z,39.97
2018-07-04T08:01:11.711Z,39.01
2018-07-04T08:02:11.697Z,39.11
2018-07-04T08:03:11.761Z,39.29
2018-07-04T08:04:11.732Z,39.29
2018-07-04T08:05:12.597Z,39.01
2018-07-04T08:06:11.768Z,39.29
2018-07-04T08:07:12.617Z,39.20
2018-07-04T08:08:11.672Z,38.81
2018-07-04T08:09:11.702Z,38.62
2018-07-04T08:10:11.704Z,38.74
2018-07-04T08:11:11.799Z,39.01
2018-07-04T08:12:13.180Z,38.83
2018-07-04T08:13:11.892Z,38.62
2018-07-04T08:14:11.853Z,38.53
2018-07-04T08:15:12.597Z,38.54
2018-07-04T08:16:13.618Z,38.54
2018-07-04T08:17:13.193Z,38.45
2018-07-04T08:18:12.108Z,38.93
2018-07-04T08:19:11.869Z,39.03
2018-07-04T08:20:11.743Z,38.74
2018-07-04T08:21:11.685Z,38.74
2018-07-04T08:22:12.542Z,38.54
2018-07-04T08:23:12.591Z,38.74
2018-07-04T08:24:12.555Z,38.64
2018-07-04T08:25:12.569Z,38.54
2018-07-04T08:26:13.122Z,38.37
2018-07-04T08:27:13.090Z,37.79
2018-07-04T08:28:11.684Z,37.70
2018-07-04T08:29:14.052Z,37.70
2018-07-04T08:30:12.679Z,38.56
2018-07-04T08:31:12.297Z,38.37
2018-07-04T08:32:12.225Z,38.46
2018-07-04T08:33:13.128Z,37.79
2018-07-04T08:34:12.801Z,37.71
2018-07-04T08:35:12.721Z,37.34
2018-07-04T08:36:13.544Z,36.49
2018-07-04T08:37:12.016Z,34.96
2018-07-04T08:38:11.957Z,34.20
2018-07-04T08:39:12.595Z,33.84
2018-07-04T08:40:12.609Z,31.57
2018-07-04T08:41:12.671Z,30.15
2018-07-04T08:42:15.594Z,27.66
2018-07-04T08:43:12.700Z,25.95
2018-07-04T08:44:12.629Z,23.93
2018-07-04T08:45:11.921Z,23.96
2018-07-04T08:46:11.769Z,22.41
2018-07-04T08:47:12.608Z,21.26
2018-07-04T08:48:13.551Z,20.69
2018-07-04T08:49:12.596Z,19.62
2018-07-04T08:50:11.823Z,18.27
2018-07-04T08:51:12.616Z,18.18
2018-07-04T08:52:12.617Z,18.09
2018-07-04T08:53:12.593Z,17.41
2018-07-04T08:54:12.610Z,17.32
2018-07-04T08:55:12.596Z,16.74
2018-07-04T08:56:14.083Z,16.05
2018-07-04T08:57:12.478Z,15.08
2018-07-04T08:58:13.096Z,14.59
2018-07-04T08:59:12.585Z,14.39
2018-07-04T09:00:12.721Z,13.61
2018-07-04T09:01:12.066Z,13.21
2018-07-04T09:02:13.231Z,13.32
2018-07-04T09:03:13.408Z,14.01
2018-07-04T09:04:13.283Z,14.01
2018-07-04T09:05:12.817Z,13.12
2018-07-04T09:06:13.341Z,12.04
2018-07-04T09:07:12.610Z,12.74
2018-07-04T09:08:12.249Z,12.84
2018-07-04T09:09:12.654Z,11.55
2018-07-04T09:10:13.176Z,12.05
2018-07-04T09:11:12.148Z,11.07
2018-07-04T09:12:13.144Z,11.36
2018-07-04T09:13:13.692Z,11.46
2018-07-04T09:14:12.079Z,11.07
2018-07-04T09:15:13.101Z,11.27
2018-07-04T09:16:13.137Z,11.17
2018-07-04T09:17:12.667Z,10.28
2018-07-04T09:18:13.252Z,10.59
2018-07-04T09:19:12.393Z,10.10
2018-07-04T09:20:12.642Z,9.70
2018-07-04T09:21:13.333Z,10.00
2018-07-04T09:22:13.560Z,9.61
2018-07-04T09:23:13.108Z,10.11
2018-07-04T09:24:12.390Z,9.81
2018-07-04T09:25:12.157Z,9.31
2018-07-04T09:26:12.456Z,9.02
2018-07-04T09:27:12.116Z,9.42
2018-07-04T09:28:12.123Z,8.92
2018-07-04T09:29:12.132Z,9.42
2018-07-04T09:30:12.162Z,8.53
2018-07-04T09:31:12.156Z,8.24
2018-07-04T09:32:12.169Z,8.14
2018-07-04T09:33:12.186Z,7.95
2018-07-04T09:34:12.462Z,7.56
2018-07-04T09:35:12.209Z,7.16
2018-07-04T09:36:12.226Z,7.67
2018-07-04T09:37:12.237Z,7.37
2018-07-04T09:38:12.253Z,6.27
2018-07-04T09:39:12.273Z,6.37
2018-07-04T09:40:12.279Z,6.27
2018-07-04T09:41:12.484Z,7.26
2018-07-04T09:42:12.309Z,7.37
2018-07-04T09:43:12.322Z,6.67
2018-07-04T09:44:12.375Z,6.57
2018-07-04T09:45:12.353Z,6.77
2018-07-04T09:46:12.370Z,5.58
2018-07-04T09:47:12.519Z,7.98
2018-07-04T09:48:12.399Z,7.28
2018-07-04T09:49:12.415Z,6.57
2018-07-04T09:50:12.495Z,6.08
2018-07-04T09:51:12.458Z,6.27
2018-07-04T09:52:12.474Z,7.17
2018-07-04T09:53:12.473Z,7.08
2018-07-04T09:54:12.493Z,5.19
2018-07-04T09:55:12.671Z,6.29
2018-07-04T09:56:12.518Z,6.40
2018-07-04T09:57:12.533Z,6.20
2018-07-04T09:58:12.550Z,5.00
2018-07-04T09:59:12.568Z,4.00
2018-07-04T10:00:12.584Z,5.51
2018-07-04T10:01:12.597Z,4.80
2018-07-04T10:02:12.615Z,4.00
2018-07-04T10:03:12.646Z,5.51
2018-07-04T10:04:12.649Z,4.41
2018-07-04T10:05:12.665Z,4.81
2018-07-04T10:06:12.681Z,3.61
2018-07-04T10:07:12.699Z,3.20
2018-07-04T10:08:12.717Z,4.82
2018-07-04T10:09:12.775Z,5.21
2018-07-04T10:10:12.749Z,4.02
2018-07-04T10:11:12.768Z,4.11
2018-07-04T10:12:12.784Z,2.61
2018-07-04T10:13:12.801Z,2.91
2018-07-04T10:14:12.821Z,3.31
2018-07-04T10:15:12.842Z,4.11
2018-07-04T10:16:12.855Z,3.41
2018-07-04T10:17:12.879Z,3.50
2018-07-04T10:18:12.933Z,4.51
2018-07-04T10:19:12.909Z,4.71
2018-07-04T10:20:12.928Z,3.91
2018-07-04T10:21:12.947Z,3.31
2018-07-04T10:22:12.964Z,2.51
2018-07-04T10:23:13.012Z,1.90
2018-07-04T10:24:13.001Z,3.31
2018-07-04T10:25:13.604Z,2.41
2018-07-04T10:26:13.039Z,2.61
2018-07-04T10:27:13.066Z,2.31
2018-07-04T10:28:13.075Z,2.01
2018-07-04T10:29:13.100Z,1.91
2018-07-04T10:30:13.113Z,2.11
2018-07-04T10:31:13.158Z,2.21
2018-07-04T10:32:13.160Z,2.31
2018-07-04T10:33:13.174Z,2.72
2018-07-04T10:34:13.192Z,2.11
2018-07-04T10:35:13.208Z,1.31
2018-07-04T10:36:13.231Z,1.31
2018-07-04T10:37:13.277Z,1.41
2018-07-04T10:38:13.267Z,1.31
2018-07-04T10:39:13.295Z,1.10
2018-07-04T10:40:13.306Z,1.41
2018-07-04T10:41:13.327Z,1.21
2018-07-04T10:42:13.347Z,1.31
2018-07-04T10:43:13.369Z,1.20
2018-07-04T10:44:13.385Z,1.40
2018-07-04T10:45:13.410Z,1.20
2018-07-04T10:46:13.427Z,1.90
2018-07-04T10:47:13.454Z,2.91
2018-07-04T10:48:13.467Z,2.11
2018-07-04T10:49:13.488Z,2.40
2018-07-04T10:50:13.508Z,3.30
2018-07-04T10:51:13.524Z,3.39
2018-07-04T10:52:13.542Z,3.89
2018-07-04T10:53:13.562Z,4.58
2018-07-04T10:54:13.580Z,5.08
2018-07-04T10:55:13.603Z,4.69
2018-07-04T10:56:13.636Z,3.79
2018-07-04T10:57:13.637Z,3.69
2018-07-04T10:58:13.657Z,3.79
2018-07-04T10:59:13.674Z,3.89
2018-07-04T11:00:13.694Z,3.30
2018-07-04T11:01:13.709Z,3.80
2018-07-04T11:02:13.728Z,3.70
2018-07-04T11:03:13.765Z,3.30
2018-07-04T11:04:13.765Z,3.40
2018-07-04T11:05:13.781Z,3.30
2018-07-04T11:06:13.816Z,3.40
2018-07-04T11:07:13.818Z,3.40
2018-07-04T11:08:13.837Z,3.10
2018-07-04T11:09:13.866Z,3.30
2018-07-04T11:10:13.912Z,3.30
2018-07-04T11:11:13.896Z,1.90
2018-07-04T11:12:13.921Z,2.11
2018-07-04T11:13:13.931Z,2.50
2018-07-04T11:14:13.950Z,2.30
2018-07-04T11:15:13.967Z,2.70
2018-07-04T11:16:13.986Z,2.90
2018-07-04T11:17:14.010Z,3.09
2018-07-04T11:18:14.025Z,3.69
2018-07-04T11:19:14.042Z,4.18
2018-07-04T11:20:14.064Z,4.88
2018-07-04T11:21:14.081Z,4.58
2018-07-04T11:22:14.143Z,4.08
2018-07-04T11:23:14.116Z,4.38
2018-07-04T11:24:14.133Z,3.99
2018-07-04T11:25:14.152Z,4.28
2018-07-04T11:26:14.174Z,4.08
2018-07-04T11:27:14.189Z,3.88
2018-07-04T11:28:14.204Z,4.38
2018-07-04T11:29:14.222Z,4.38
2018-07-04T11:30:14.240Z,3.99
2018-07-04T11:31:14.258Z,3.99
2018-07-04T11:32:14.275Z,3.70
2018-07-04T11:33:14.294Z,3.40
2018-07-04T11:34:14.348Z,3.00
2018-07-04T11:35:14.333Z,2.61
2018-07-04T11:36:14.348Z,2.91
2018-07-04T11:37:14.371Z,2.61
2018-07-04T11:38:14.410Z,2.50
2018-07-04T11:39:14.406Z,2.60
2018-07-04T11:40:14.437Z,2.70
2018-07-04T11:41:14.441Z,2.40
2018-07-04T11:42:14.481Z,3.00
2018-07-04T11:43:14.483Z,2.30
2018-07-04T11:44:14.502Z,2.60
2018-07-04T11:45:14.528Z,2.50
2018-07-04T11:46:14.537Z,2.80
2018-07-04T11:47:14.573Z,3.20
2018-07-04T11:48:14.583Z,2.70
2018-07-04T11:49:14.601Z,2.40
2018-07-04T11:50:14.629Z,2.40
2018-07-04T11:51:14.636Z,2.11
2018-07-04T11:52:14.653Z,2.11
2018-07-04T11:53:14.689Z,2.11
2018-07-04T11:54:14.692Z,2.11
2018-07-04T11:55:14.977Z,1.61
2018-07-04T11:56:14.734Z,1.61
2018-07-04T11:57:14.779Z,1.61
2018-07-04T11:58:14.771Z,1.10
2018-07-04T11:59:14.791Z,1.10
2018-07-04T12:00:14.810Z,1.40
2018-07-04T12:01:14.846Z,1.40
2018-07-04T12:02:14.849Z,1.40
2018-07-04T12:03:15.274Z,1.10
2018-07-04T12:04:14.885Z,1.00
2018-07-04T12:05:14.917Z,1.50
2018-07-04T12:06:14.925Z,1.40
2018-07-04T12:07:14.953Z,1.81
2018-07-04T12:08:29.729Z,1.30
2018-07-04T12:09:14.982Z,1.30
2018-07-04T12:10:15.101Z,2.61
2018-07-04T12:11:21.714Z,2.11
2018-07-04T12:12:15.109Z,2.21
2018-07-04T12:13:15.061Z,2.51
2018-07-04T12:14:15.108Z,1.90
2018-07-04T12:15:15.104Z,1.10
2018-07-04T12:16:15.216Z,1.40
2018-07-04T12:17:15.142Z,1.00
2018-07-04T12:18:15.159Z,1.61
2018-07-04T12:19:15.428Z,1.31
2018-07-04T12:20:15.400Z,1.31
2018-07-04T12:21:16.226Z,1.31
2018-07-04T12:22:16.178Z,1.31
2018-07-04T12:23:16.167Z,1.61
2018-07-04T12:24:16.187Z,1.40
2018-07-04T12:25:16.173Z,1.10
2018-07-04T12:26:16.211Z,1.40
2018-07-04T12:27:15.506Z,1.81
2018-07-04T12:28:15.419Z,2.20
2018-07-04T12:29:16.169Z,3.00
2018-07-04T12:30:16.176Z,2.40
2018-07-04T12:31:16.177Z,2.90
2018-07-04T12:32:16.141Z,3.20
2018-07-04T12:33:16.162Z,3.00
2018-07-04T12:34:16.866Z,3.59
2018-07-04T12:35:15.784Z,3.40
2018-07-04T12:36:15.832Z,3.40
2018-07-04T12:37:17.205Z,3.40
2018-07-04T12:38:16.187Z,3.40
2018-07-04T12:39:15.630Z,2.80
2018-07-04T12:40:17.214Z,2.70
2018-07-04T12:41:16.679Z,3.10
2018-07-04T12:42:15.990Z,2.80
2018-07-04T12:43:16.685Z,3.30
2018-07-04T12:44:16.685Z,2.70
2018-07-04T12:45:16.669Z,2.70
2018-07-04T12:46:15.825Z,2.80
2018-07-04T12:47:16.728Z,3.41
2018-07-04T12:48:16.674Z,3.41
2018-07-04T12:49:16.674Z,3.41
2018-07-04T12:50:15.891Z,3.61
2018-07-04T12:51:15.899Z,3.40
2018-07-04T12:53:49.071Z,4.69
2018-07-04T12:54:49.080Z,4.59
2018-07-04T12:56:43.979Z,4.99
2018-07-04T12:58:57.968Z,4.49
2018-07-04T12:59:58.039Z,4.19
2018-07-04T13:01:53.574Z,4.69
2018-07-04T13:02:52.507Z,4.10
2018-07-04T13:04:46.915Z,4.69